Time;durP1;ratioP1;P1;durP2;ratioP2;P2;SDS_P1;SDS_P2;PMS_P1;PMS_P2;Temp;Humidity;BMP_temperature;BMP_pressure;BME280_temperature;BME280_humidity;BME280_pressure;Samples;Min_cycle;Max_cycle;Signal;HPM_P1;HPM_P2
2022/07/04 00:01:47;;;;;;;3.00;1.77;;;21.40;41.50;;;;;;4870104;29;20445;-82
2022/07/04 00:04:14;;;;;;;2.23;2.03;;;21.30;41.80;;;;;;4869182;29;20800;-82
2022/07/04 00:06:41;;;;;;;2.30;1.87;;;21.30;41.90;;;;;;4871760;29;20481;-82
2022/07/04 00:09:08;;;;;;;1.93;1.83;;;21.20;41.70;;;;;;4868955;29;20585;-82
2022/07/04 00:11:35;;;;;;;2.40;2.20;;;21.20;41.10;;;;;;4868565;29;20522;-81
2022/07/04 00:14:03;;;;;;;1.77;1.67;;;21.20;41.30;;;;;;4875827;29;20436;-81
2022/07/04 00:16:34;;;;;;;2.67;2.20;;;21.20;41.60;;;;;;4869462;29;20506;-82
2022/07/04 00:19:00;;;;;;;4.17;2.10;;;21.10;41.00;;;;;;4878160;29;20457;-82
2022/07/04 00:21:30;;;;;;;1.80;1.70;;;21.00;41.10;;;;;;4876584;29;20501;-80
2022/07/04 00:23:56;;;;;;;2.80;1.90;;;21.00;41.40;;;;;;4870195;29;20477;-81
2022/07/04 00:26:23;;;;;;;5.93;2.07;;;20.90;41.70;;;;;;4869687;29;20471;-82
2022/07/04 00:28:56;;;;;;;3.23;2.40;;;20.80;41.80;;;;;;4873711;29;20544;-81
2022/07/04 00:31:27;;;;;;;4.10;1.90;;;20.80;42.00;;;;;;4876661;29;20407;-81
2022/07/04 00:33:57;;;;;;;2.00;1.80;;;20.70;42.20;;;;;;4878059;29;20530;-82
2022/07/04 00:36:24;;;;;;;2.10;1.90;;;20.60;42.50;;;;;;4872948;29;20490;-82
2022/07/04 00:38:51;;;;;;;2.20;1.83;;;20.60;42.90;;;;;;4878478;29;20476;-83
2022/07/04 00:41:21;;;;;;;4.80;1.80;;;20.50;43.00;;;;;;4880305;29;20489;-81
2022/07/04 00:44:01;;;;;;;2.23;1.83;;;20.50;43.10;;;;;;4868711;29;20537;-81
2022/07/04 00:46:32;;;;;;;1.60;1.50;;;20.40;42.90;;;;;;4871400;29;20452;-81
2022/07/04 00:48:59;;;;;;;3.40;2.00;;;20.40;43.30;;;;;;4869416;29;20472;-81
2022/07/04 00:51:29;;;;;;;2.13;2.00;;;20.40;43.20;;;;;;4880709;29;20440;-82
2022/07/04 00:54:21;;;;;;;2.07;1.63;;;20.40;43.80;;;;;;4875566;29;20513;-82
2022/07/04 00:56:51;;;;;;;2.87;2.00;;;20.40;43.00;;;;;;4875305;29;20462;-82
2022/07/04 00:59:18;;;;;;;5.13;1.77;;;20.40;42.90;;;;;;4876665;29;20444;-81
2022/07/04 01:02:22;;;;;;;1.97;1.87;;;20.40;42.70;;;;;;4873654;29;20447;-83
2022/07/04 01:05:29;;;;;;;1.93;1.80;;;20.40;42.40;;;;;;4883644;29;20494;-82
2022/07/04 01:08:19;;;;;;;2.20;1.77;;;20.40;42.30;;;;;;4788765;29;20450;-79
2022/07/04 01:14:07;;;;;;;2.30;2.20;;;20.30;42.70;;;;;;4789605;29;20409;-80
2022/07/04 01:16:43;;;;;;;3.23;2.00;;;20.30;42.80;;;;;;4791828;29;20522;-83
2022/07/04 01:19:24;;;;;;;2.90;1.93;;;20.20;43.00;;;;;;4790401;29;20499;-84
2022/07/04 01:22:40;;;;;;;2.00;1.80;;;20.20;43.30;;;;;;4789629;29;20417;-82
2022/07/04 01:25:58;;;;;;;4.97;2.00;;;20.10;43.60;;;;;;4791775;29;20470;-83
2022/07/04 01:37:30;;;;;;;1.93;1.83;;;19.90;44.90;;;;;;4997816;23;20505;-80
2022/07/04 01:40:17;;;;;;;2.63;2.00;;;19.80;45.20;;;;;;4887717;29;20448;-82
2022/07/04 01:42:53;;;;;;;2.90;2.30;;;19.80;45.30;;;;;;4887394;29;20464;-81
2022/07/04 01:45:37;;;;;;;1.90;1.80;;;19.80;45.30;;;;;;4878092;29;20474;-82
2022/07/04 01:51:23;;;;;;;3.37;1.70;;;19.70;45.60;;;;;;4867252;29;20489;-83
2022/07/04 01:54:00;;;;;;;4.10;1.83;;;19.60;45.30;;;;;;4867905;29;20474;-80
2022/07/04 02:02:26;;;;;;;2.67;1.83;;;19.60;45.10;;;;;;4866208;29;20412;-83
2022/07/04 02:07:46;;;;;;;3.70;1.93;;;19.60;44.80;;;;;;4865343;29;20463;-82
2022/07/04 02:10:16;;;;;;;2.00;1.73;;;19.60;44.60;;;;;;4852911;29;20476;-81
2022/07/04 02:15:28;;;;;;;1.80;1.57;;;19.70;43.90;;;;;;4860649;29;20542;-81
2022/07/04 02:17:55;;;;;;;2.33;1.80;;;19.70;43.80;;;;;;4857979;29;20526;-82
2022/07/04 02:20:22;;;;;;;1.70;1.60;;;19.70;43.80;;;;;;4860214;29;20440;-82
2022/07/04 02:22:49;;;;;;;1.80;1.33;;;19.60;43.90;;;;;;4868007;29;20470;-81
2022/07/04 02:25:18;;;;;;;2.03;1.53;;;19.60;43.70;;;;;;4867885;29;20474;-81
2022/07/04 02:27:45;;;;;;;2.60;1.70;;;19.60;43.90;;;;;;4865540;29;20441;-82
2022/07/04 02:30:13;;;;;;;3.20;1.70;;;19.60;43.90;;;;;;4852793;29;20469;-82
2022/07/04 02:32:40;;;;;;;2.57;1.83;;;19.60;43.90;;;;;;4853363;29;20521;-82
2022/07/04 02:35:08;;;;;;;1.70;1.60;;;19.60;43.70;;;;;;4852244;29;20543;-82
2022/07/04 02:37:35;;;;;;;1.70;1.60;;;19.50;43.80;;;;;;4851614;29;20822;-80
2022/07/04 02:40:03;;;;;;;1.93;1.60;;;19.50;43.80;;;;;;4852880;29;20570;-81
2022/07/04 02:42:32;;;;;;;1.70;1.60;;;19.40;43.60;;;;;;4855654;29;20514;-82
2022/07/04 02:44:59;;;;;;;1.83;1.30;;;19.50;43.60;;;;;;4858354;29;20466;-81
2022/07/04 02:47:27;;;;;;;2.70;1.60;;;19.40;43.40;;;;;;4852621;29;20442;-82
2022/07/04 02:49:54;;;;;;;3.60;1.43;;;19.40;43.50;;;;;;4853265;29;20922;-83
2022/07/04 02:52:21;;;;;;;1.90;1.80;;;19.40;43.60;;;;;;4852805;29;20538;-82
2022/07/04 02:54:52;;;;;;;2.00;1.80;;;19.30;43.50;;;;;;4851768;29;20715;-82
2022/07/04 02:57:20;;;;;;;1.60;1.50;;;19.30;43.50;;;;;;4851593;29;20480;-80
2022/07/04 02:59:48;;;;;;;2.67;1.57;;;19.20;43.60;;;;;;4854409;29;20487;-81
2022/07/04 03:02:15;;;;;;;4.90;1.87;;;19.20;43.80;;;;;;4857380;29;20441;-83
2022/07/04 03:04:42;;;;;;;3.10;1.60;;;19.10;44.20;;;;;;4856745;29;20487;-82
2022/07/04 03:07:09;;;;;;;6.77;1.90;;;19.10;43.80;;;;;;4853231;29;20481;-82
2022/07/04 03:09:36;;;;;;;1.90;1.60;;;19.10;44.00;;;;;;4856379;29;20455;-80
2022/07/04 03:12:04;;;;;;;3.33;1.53;;;19.20;44.00;;;;;;4886798;24;20489;-80
2022/07/04 03:14:31;;;;;;;1.50;1.40;;;19.20;43.60;;;;;;4883181;29;20439;-77
2022/07/04 03:16:59;;;;;;;1.83;1.57;;;19.20;43.70;;;;;;4884816;29;20446;-76
2022/07/04 03:19:26;;;;;;;2.10;1.63;;;19.20;43.70;;;;;;4885392;29;20432;-80
2022/07/04 03:21:53;;;;;;;2.87;1.90;;;19.20;43.70;;;;;;4884024;29;20481;-79
2022/07/04 03:24:19;;;;;;;4.40;1.63;;;19.10;43.90;;;;;;4882201;29;20525;-77
2022/07/04 03:26:46;;;;;;;3.50;1.70;;;19.20;43.70;;;;;;4880717;29;20452;-78
2022/07/04 03:29:13;;;;;;;2.63;1.97;;;19.10;43.80;;;;;;4881050;29;20441;-78
2022/07/04 03:31:40;;;;;;;2.90;1.70;;;19.10;44.10;;;;;;4878298;29;20532;-77
2022/07/04 03:34:08;;;;;;;2.40;1.63;;;19.10;44.20;;;;;;4877353;29;20448;-77
2022/07/04 03:36:35;;;;;;;2.53;1.60;;;19.10;44.10;;;;;;4872752;29;20448;-78
2022/07/04 03:39:02;;;;;;;2.20;1.57;;;19.10;44.10;;;;;;4872572;29;20531;-80
2022/07/04 03:41:29;;;;;;;2.00;1.80;;;19.00;44.30;;;;;;4866511;29;20569;-79
2022/07/04 03:43:56;;;;;;;2.17;1.70;;;19.00;44.40;;;;;;4865584;29;20956;-79
2022/07/04 03:46:23;;;;;;;1.97;1.87;;;19.00;44.50;;;;;;4866634;29;20526;-79
2022/07/04 03:48:50;;;;;;;2.10;1.73;;;18.90;44.60;;;;;;4868337;29;20480;-79
2022/07/04 03:51:18;;;;;;;5.43;1.67;;;18.90;44.50;;;;;;4863700;29;20486;-78
2022/07/04 03:53:45;;;;;;;4.80;1.97;;;19.00;44.30;;;;;;4861626;29;20454;-78
2022/07/04 03:56:12;;;;;;;3.57;1.70;;;19.00;44.50;;;;;;4861885;29;20810;-78
2022/07/04 03:58:39;;;;;;;1.77;1.57;;;19.00;44.20;;;;;;4862184;29;20937;-78
2022/07/04 04:01:06;;;;;;;3.07;1.80;;;19.00;44.20;;;;;;4866305;29;20482;-76
2022/07/04 04:06:18;;;;;;;2.53;1.70;;;18.90;44.70;;;;;;4872883;29;20451;-76
2022/07/04 04:08:45;;;;;;;2.20;1.90;;;18.90;44.60;;;;;;4877610;29;20460;-80
2022/07/04 04:11:12;;;;;;;5.57;2.30;;;18.90;44.70;;;;;;4868067;29;20496;-79
2022/07/04 04:13:38;;;;;;;2.30;1.60;;;19.00;44.60;;;;;;4845101;29;20458;-77
2022/07/04 04:16:05;;;;;;;2.30;1.93;;;19.00;44.80;;;;;;4850694;29;20476;-76
2022/07/04 04:18:32;;;;;;;2.40;1.50;;;18.90;44.90;;;;;;4867150;29;20465;-79
2022/07/04 04:20:59;;;;;;;3.23;1.90;;;19.00;44.70;;;;;;4864128;29;20486;-77
2022/07/04 04:23:27;;;;;;;1.90;1.73;;;19.00;44.70;;;;;;4865147;29;20441;-76
2022/07/04 04:25:54;;;;;;;1.70;1.57;;;19.00;44.40;;;;;;4868226;29;20498;-76
2022/07/04 04:28:21;;;;;;;1.87;1.63;;;19.10;44.40;;;;;;4869858;29;20440;-79
2022/07/04 04:30:48;;;;;;;1.70;1.57;;;19.20;44.20;;;;;;4874232;29;20601;-78
2022/07/04 04:33:15;;;;;;;7.90;1.70;;;19.20;44.10;;;;;;4875829;29;20437;-78
2022/07/04 04:36:07;;;;;;;2.80;1.93;;;19.40;43.90;;;;;;4874987;29;20550;-77
2022/07/04 04:38:39;;;;;;;1.93;1.70;;;19.40;43.80;;;;;;4872463;29;20436;-78
2022/07/04 04:41:05;;;;;;;1.93;1.60;;;19.40;43.60;;;;;;4865508;29;20463;-78
2022/07/04 04:43:32;;;;;;;2.03;1.60;;;19.50;43.30;;;;;;4861687;29;20623;-76
2022/07/04 04:46:00;;;;;;;1.50;1.40;;;19.60;43.20;;;;;;4863516;29;20472;-78
2022/07/04 04:48:27;;;;;;;2.40;1.40;;;19.40;43.80;;;;;;4872556;29;20432;-78
2022/07/04 04:50:54;;;;;;;2.83;1.97;;;19.40;43.80;;;;;;4877143;29;20479;-78
2022/07/04 04:53:22;;;;;;;1.57;1.47;;;19.50;43.70;;;;;;4868641;29;20528;-78
2022/07/04 04:55:50;;;;;;;2.00;1.57;;;19.70;43.20;;;;;;4862405;29;20448;-78
2022/07/04 04:58:17;;;;;;;1.93;1.83;;;19.80;42.80;;;;;;4861368;29;20437;-78
2022/07/04 05:00:44;;;;;;;2.60;1.60;;;19.80;41.60;;;;;;4862952;29;20618;-79
2022/07/04 05:03:11;;;;;;;1.97;1.47;;;20.00;41.60;;;;;;4864663;29;20476;-78
2022/07/04 05:05:38;;;;;;;1.60;1.50;;;20.60;40.30;;;;;;4863700;29;20793;-79
2022/07/04 05:08:05;;;;;;;1.83;1.53;;;21.30;39.30;;;;;;4865423;29;20441;-78
2022/07/04 05:10:32;;;;;;;1.47;1.37;;;21.70;37.30;;;;;;4873563;29;20567;-77
2022/07/04 05:13:01;;;;;;;3.77;1.60;;;22.00;37.00;;;;;;4859462;29;20504;-79
2022/07/04 05:15:27;;;;;;;2.53;1.33;;;22.00;36.70;;;;;;4851983;29;20429;-78
2022/07/04 05:17:55;;;;;;;2.70;1.53;;;22.50;35.60;;;;;;4871904;29;20447;-78
2022/07/04 05:20:21;;;;;;;3.50;1.33;;;23.30;32.90;;;;;;4880571;29;20442;-78
2022/07/04 05:22:49;;;;;;;4.67;1.40;;;23.60;31.80;;;;;;4877354;29;20476;-78
2022/07/04 05:25:16;;;;;;;3.07;1.33;;;23.30;33.70;;;;;;4877773;29;20493;-79
2022/07/04 05:27:43;;;;;;;3.27;1.60;;;23.50;32.20;;;;;;4861400;29;20439;-78
2022/07/04 05:30:12;;;;;;;3.67;1.70;;;23.30;31.50;;;;;;4860858;29;20833;-79
2022/07/04 05:32:40;;;;;;;3.80;1.50;;;23.30;32.20;;;;;;4865522;29;20481;-79
2022/07/04 05:35:07;;;;;;;1.90;1.30;;;23.20;31.40;;;;;;4866648;29;20444;-76
2022/07/04 05:37:35;;;;;;;2.10;1.33;;;22.90;33.30;;;;;;4860764;29;20466;-77
2022/07/04 05:40:02;;;;;;;1.70;1.60;;;22.70;33.60;;;;;;4861057;29;20515;-77
2022/07/04 05:42:28;;;;;;;3.53;1.57;;;22.80;33.80;;;;;;4860623;29;20448;-77
2022/07/04 05:44:56;;;;;;;4.67;1.60;;;22.60;33.60;;;;;;4861575;29;20536;-77
2022/07/04 05:47:24;;;;;;;9.00;1.80;;;22.30;34.40;;;;;;4861018;29;20489;-79
2022/07/04 05:49:51;;;;;;;3.10;1.97;;;22.50;34.20;;;;;;4861559;29;20443;-77
2022/07/04 05:52:18;;;;;;;4.13;1.70;;;22.20;35.10;;;;;;4862650;29;20506;-76
2022/07/04 05:54:45;;;;;;;1.80;1.60;;;21.70;36.50;;;;;;4864076;29;20817;-78
2022/07/04 05:57:12;;;;;;;1.93;1.83;;;21.50;37.20;;;;;;4865713;29;20539;-77
2022/07/04 05:59:39;;;;;;;2.47;1.70;;;21.90;36.10;;;;;;4865580;29;20472;-78
2022/07/04 06:02:08;;;;;;;3.90;1.67;;;22.30;35.60;;;;;;4865163;29;20489;-76
2022/07/04 06:04:39;;;;;;;2.30;1.63;;;22.60;34.80;;;;;;4868406;29;20436;-77
2022/07/04 06:07:06;;;;;;;3.80;1.80;;;22.90;34.30;;;;;;4865850;29;20442;-77
2022/07/04 06:09:33;;;;;;;2.33;1.43;;;23.20;33.50;;;;;;4869498;29;20435;-77
2022/07/04 06:12:00;;;;;;;1.93;1.60;;;23.40;33.00;;;;;;4861978;29;20476;-80
2022/07/04 06:14:27;;;;;;;2.23;2.00;;;23.70;31.90;;;;;;4863320;29;20473;-78
2022/07/04 06:16:53;;;;;;;2.33;1.97;;;23.50;32.10;;;;;;4875572;29;20502;-74
2022/07/04 06:19:20;;;;;;;3.60;1.70;;;22.90;33.50;;;;;;4877751;29;20614;-78
2022/07/04 06:21:49;;;;;;;3.90;1.63;;;22.90;34.10;;;;;;4878007;29;20494;-74
2022/07/04 06:24:16;;;;;;;3.30;1.50;;;23.40;32.90;;;;;;4879408;29;20530;-75
2022/07/04 06:26:43;;;;;;;2.27;1.80;;;23.80;32.00;;;;;;4877454;29;20460;-75
2022/07/04 06:29:10;;;;;;;3.33;1.43;;;23.90;32.10;;;;;;4878819;29;20511;-77
2022/07/04 06:31:37;;;;;;;2.30;1.97;;;24.00;32.20;;;;;;4871312;29;20512;-76
2022/07/04 06:36:50;;;;;;;5.50;1.73;;;24.00;32.20;;;;;;4868926;29;20465;-76
2022/07/04 06:39:17;;;;;;;2.77;1.83;;;23.40;32.60;;;;;;4866276;29;20533;-76
2022/07/04 06:41:44;;;;;;;5.20;2.00;;;23.40;32.70;;;;;;4866987;29;20460;-76
2022/07/04 06:44:10;;;;;;;1.83;1.73;;;23.40;33.10;;;;;;4866611;29;20828;-75
2022/07/04 06:46:37;;;;;;;1.77;1.67;;;23.40;33.40;;;;;;4873554;29;20552;-75
2022/07/04 06:49:04;;;;;;;2.70;1.70;;;24.00;32.20;;;;;;4867070;29;20535;-76
2022/07/04 06:51:31;;;;;;;1.77;1.47;;;22.80;34.40;;;;;;4881526;29;20503;-78
2022/07/04 06:54:00;;;;;;;4.90;2.00;;;23.00;34.20;;;;;;4878380;29;20457;-75
2022/07/04 06:56:27;;;;;;;2.30;2.10;;;23.00;33.90;;;;;;4874540;29;20525;-77
2022/07/04 06:58:54;;;;;;;3.83;1.70;;;23.20;33.40;;;;;;4879094;29;20459;-75
2022/07/04 07:01:22;;;;;;;2.70;1.43;;;22.90;34.70;;;;;;4871075;29;20476;-74
2022/07/04 07:03:49;;;;;;;3.93;1.83;;;22.80;34.70;;;;;;4865030;29;20507;-75
2022/07/04 07:06:16;;;;;;;2.67;2.07;;;22.50;35.40;;;;;;4865749;29;20814;-77
2022/07/04 07:08:43;;;;;;;6.93;2.40;;;22.10;36.90;;;;;;4863605;29;20461;-75
2022/07/04 07:11:14;;;;;;;5.07;2.40;;;22.10;36.30;;;;;;4866407;29;20931;-76
2022/07/04 07:13:41;;;;;;;3.30;1.83;;;22.20;35.70;;;;;;4863989;29;20809;-75
2022/07/04 07:16:08;;;;;;;2.10;1.90;;;22.20;36.10;;;;;;4859802;29;20520;-72
2022/07/04 07:18:35;;;;;;;4.83;1.80;;;22.10;36.40;;;;;;4874769;29;20465;-73
2022/07/04 07:21:02;;;;;;;4.50;2.33;;;22.10;37.10;;;;;;4869600;29;20724;-72
2022/07/04 07:23:29;;;;;;;2.93;2.63;;;22.00;37.00;;;;;;4862854;29;20796;-74
2022/07/04 07:25:56;;;;;;;2.13;1.93;;;21.70;37.40;;;;;;4862837;29;20972;-75
2022/07/04 07:28:24;;;;;;;2.40;1.93;;;21.80;37.50;;;;;;4861219;29;20904;-74
2022/07/04 07:30:51;;;;;;;4.60;2.10;;;22.00;37.50;;;;;;4861097;29;20560;-74
2022/07/04 07:33:18;;;;;;;6.23;2.30;;;22.10;37.10;;;;;;4863146;29;20538;-75
2022/07/04 07:35:45;;;;;;;2.47;2.30;;;22.10;37.20;;;;;;4862413;29;20473;-72
2022/07/04 07:38:12;;;;;;;2.90;2.27;;;22.10;37.40;;;;;;4860664;29;20734;-73
2022/07/04 07:40:40;;;;;;;4.30;2.27;;;22.20;37.40;;;;;;4856785;29;20832;-74
2022/07/04 07:43:07;;;;;;;2.80;2.10;;;22.30;36.90;;;;;;4862188;29;20452;-74
2022/07/04 07:45:35;;;;;;;4.40;2.67;;;22.10;37.00;;;;;;4862724;29;20513;-74
2022/07/04 07:48:03;;;;;;;2.87;2.57;;;22.10;37.00;;;;;;4862272;29;20469;-71
2022/07/04 07:50:30;;;;;;;4.17;2.30;;;21.80;37.70;;;;;;4862118;29;20467;-73
2022/07/04 07:52:57;;;;;;;6.80;2.70;;;22.00;37.70;;;;;;4859225;29;20950;-76
2022/07/04 07:55:24;;;;;;;4.70;2.60;;;22.10;37.60;;;;;;4862005;29;20497;-73
2022/07/04 07:57:51;;;;;;;2.50;2.30;;;22.30;36.90;;;;;;4870152;29;20485;-73
2022/07/04 08:00:18;;;;;;;5.40;2.47;;;22.40;36.90;;;;;;4862507;29;20893;-74
2022/07/04 08:05:32;;;;;;;4.23;2.40;;;22.70;35.60;;;;;;4864322;29;20590;-74
2022/07/04 08:08:00;;;;;;;6.20;2.27;;;22.80;35.80;;;;;;4864233;29;20841;-74
2022/07/04 08:10:27;;;;;;;2.97;2.10;;;22.80;35.60;;;;;;4864254;29;20494;-73
2022/07/04 08:12:55;;;;;;;4.20;2.27;;;22.80;35.80;;;;;;4861549;29;20508;-76
2022/07/04 08:15:26;;;;;;;4.60;2.50;;;23.00;35.30;;;;;;4861950;29;20509;-76
2022/07/04 08:17:54;;;;;;;4.60;2.70;;;23.20;34.60;;;;;;4862116;29;20450;-75
2022/07/04 08:20:21;;;;;;;6.40;3.13;;;23.20;34.20;;;;;;4861921;29;20443;-75
2022/07/04 08:22:48;;;;;;;2.67;2.47;;;22.80;35.40;;;;;;4861270;29;20485;-76
2022/07/04 08:25:16;;;;;;;4.37;2.50;;;23.00;34.50;;;;;;4862746;29;20464;-74
2022/07/04 08:27:44;;;;;;;3.60;2.50;;;22.90;34.60;;;;;;4864282;29;20436;-74
2022/07/04 08:30:11;;;;;;;3.93;2.40;;;23.20;34.30;;;;;;4864396;29;20477;-75
2022/07/04 08:32:38;;;;;;;3.13;2.53;;;23.40;33.70;;;;;;4863610;29;20878;-75
2022/07/04 08:35:07;;;;;;;3.03;2.30;;;23.60;33.30;;;;;;4862168;29;20462;-75
2022/07/04 08:37:34;;;;;;;4.47;2.63;;;23.30;34.20;;;;;;4861991;29;20921;-76
2022/07/04 08:40:06;;;;;;;5.83;2.73;;;23.40;34.30;;;;;;4862245;29;20541;-75
2022/07/04 08:42:37;;;;;;;3.27;2.27;;;23.40;33.70;;;;;;4864834;29;21138;-75
2022/07/04 08:45:06;;;;;;;2.53;2.33;;;23.50;34.60;;;;;;4862522;29;20810;-74
2022/07/04 08:47:35;;;;;;;2.67;2.47;;;23.60;33.80;;;;;;4861574;29;20463;-74
2022/07/04 08:50:15;;;;;;;5.07;2.70;;;23.80;33.40;;;;;;4863812;29;20469;-76
2022/07/04 08:52:44;;;;;;;3.93;2.17;;;23.80;32.00;;;;;;4861900;29;20540;-76
2022/07/04 09:00:42;;;;;;;2.67;2.47;;;23.30;34.50;;;;;;4860327;29;20991;-74
2022/07/04 09:03:10;;;;;;;3.40;2.20;;;23.80;34.10;;;;;;4861501;29;20804;-77
2022/07/04 09:05:39;;;;;;;2.07;1.87;;;23.90;33.30;;;;;;4862137;29;20448;-76
2022/07/04 09:08:07;;;;;;;5.93;2.20;;;24.10;32.30;;;;;;4861771;29;20568;-74
2022/07/04 09:10:35;;;;;;;3.87;2.70;;;23.80;33.00;;;;;;4860664;29;20527;-75
2022/07/04 09:13:04;;;;;;;6.17;2.50;;;23.80;32.00;;;;;;4862623;29;20514;-76
2022/07/04 09:15:31;;;;;;;6.47;2.37;;;23.50;32.40;;;;;;4863958;29;20875;-77
2022/07/04 09:17:58;;;;;;;4.10;1.73;;;23.30;32.40;;;;;;4865224;29;20539;-78
2022/07/04 09:20:26;;;;;;;2.67;1.87;;;23.10;31.40;;;;;;4864176;29;20458;-77
2022/07/04 09:22:55;;;;;;;3.67;2.20;;;23.50;31.90;;;;;;4868876;29;20522;-77
2022/07/04 09:25:24;;;;;;;2.70;2.13;;;23.60;31.80;;;;;;4866290;29;20432;-78
2022/07/04 09:27:53;;;;;;;1.90;1.80;;;23.70;31.90;;;;;;4864308;29;20460;-78
2022/07/04 09:30:22;;;;;;;4.10;1.70;;;24.10;31.60;;;;;;4865934;29;20465;-75
2022/07/04 09:32:52;;;;;;;1.83;1.63;;;24.50;30.10;;;;;;4870856;29;20501;-77
2022/07/04 09:35:21;;;;;;;4.00;2.03;;;24.40;31.70;;;;;;4879472;29;20458;-75
2022/07/04 09:37:50;;;;;;;3.87;2.53;;;24.60;30.30;;;;;;4863225;29;20568;-76
2022/07/04 09:40:28;;;;;;;3.93;2.43;;;24.60;29.90;;;;;;4865724;29;20478;-80
2022/07/04 09:42:57;;;;;;;2.80;1.60;;;24.80;30.00;;;;;;4869464;29;20452;-78
2022/07/04 09:45:25;;;;;;;2.10;2.00;;;24.90;30.00;;;;;;4871020;29;20470;-79
2022/07/04 09:47:55;;;;;;;5.50;2.53;;;25.10;28.90;;;;;;4867723;29;20543;-79
2022/07/04 09:50:27;;;;;;;3.83;1.87;;;25.10;29.10;;;;;;4874748;29;20479;-78
2022/07/04 09:52:57;;;;;;;2.53;1.80;;;24.80;29.40;;;;;;4877719;29;20471;-79
2022/07/04 09:55:27;;;;;;;3.97;2.17;;;24.90;29.40;;;;;;4884023;29;20450;-79
2022/07/04 09:57:56;;;;;;;3.70;1.90;;;25.10;28.40;;;;;;4884732;29;20465;-78
2022/07/04 10:00:26;;;;;;;6.83;2.07;;;25.10;28.40;;;;;;4885581;29;20496;-80
2022/07/04 10:02:54;;;;;;;4.40;2.30;;;24.60;29.50;;;;;;4886169;29;20554;-79
2022/07/04 10:05:24;;;;;;;2.90;1.97;;;24.90;29.10;;;;;;4886170;29;20497;-80
2022/07/04 10:07:51;;;;;;;2.77;2.00;;;25.20;28.90;;;;;;4885877;29;20423;-79
2022/07/04 10:10:32;;;;;;;4.93;1.80;;;25.30;28.30;;;;;;4886550;29;20416;-77
2022/07/04 10:13:02;;;;;;;2.37;2.03;;;25.30;28.10;;;;;;4885819;29;20541;-79
2022/07/04 10:15:30;;;;;;;2.20;2.10;;;25.30;28.80;;;;;;4884293;29;20807;-79
2022/07/04 10:17:57;;;;;;;2.47;1.83;;;25.50;28.50;;;;;;4884137;29;20449;-77
2022/07/04 10:20:24;;;;;;;2.17;1.70;;;25.70;27.80;;;;;;4884041;29;20499;-79
2022/07/04 10:22:51;;;;;;;4.37;2.50;;;25.80;27.50;;;;;;4894330;29;20451;-77
2022/07/04 10:25:18;;;;;;;4.17;2.07;;;25.50;28.00;;;;;;4878966;29;20497;-78
2022/07/04 10:27:51;;;;;;;2.20;2.00;;;25.70;27.80;;;;;;4876474;29;20425;-80
2022/07/04 10:30:23;;;;;;;2.83;2.30;;;25.70;28.00;;;;;;4876257;29;20441;-79
2022/07/04 10:32:52;;;;;;;2.70;2.03;;;26.10;26.90;;;;;;4871561;29;20505;-80
2022/07/04 10:35:49;;;;;;;2.07;1.97;;;26.00;27.60;;;;;;4872132;29;20866;-81
2022/07/04 10:38:17;;;;;;;4.10;2.07;;;26.40;27.40;;;;;;4875367;29;20468;-80
2022/07/04 10:40:49;;;;;;;3.37;2.17;;;26.80;26.40;;;;;;4872820;29;20449;-81
2022/07/04 10:44:01;;;;;;;6.00;2.70;;;27.10;26.00;;;;;;4872658;29;20520;-81
2022/07/04 10:46:38;;;;;;;3.00;2.70;;;27.40;25.60;;;;;;4870902;29;20936;-82
2022/07/04 10:49:08;;;;;;;2.40;1.83;;;27.60;25.40;;;;;;4872678;29;20468;-81
2022/07/04 10:51:45;;;;;;;3.00;1.90;;;27.40;25.60;;;;;;4873554;29;20476;-80
2022/07/04 10:54:14;;;;;;;6.23;2.03;;;27.20;25.50;;;;;;4872105;29;20502;-80
2022/07/04 10:56:47;;;;;;;3.87;1.87;;;27.10;25.40;;;;;;4874449;29;20468;-81
2022/07/04 10:59:17;;;;;;;4.50;2.10;;;27.00;26.00;;;;;;4872343;29;20483;-80
2022/07/04 11:01:51;;;;;;;3.40;2.67;;;26.70;25.20;;;;;;4874462;29;20551;-81
2022/07/04 11:04:49;;;;;;;5.67;2.30;;;26.70;25.80;;;;;;4876192;29;20529;-81
2022/07/04 11:07:16;;;;;;;3.33;2.40;;;26.60;26.10;;;;;;4869238;29;20537;-80
2022/07/04 11:09:44;;;;;;;4.80;2.30;;;26.80;26.00;;;;;;4874815;29;20456;-81
2022/07/04 11:12:12;;;;;;;3.20;2.00;;;27.00;25.40;;;;;;4876814;29;20471;-80
2022/07/04 11:14:42;;;;;;;3.53;2.30;;;27.10;25.40;;;;;;4878150;29;20468;-81
2022/07/04 11:17:12;;;;;;;3.90;2.40;;;26.80;25.30;;;;;;4875010;29;20498;-80
2022/07/04 11:19:40;;;;;;;5.83;1.90;;;26.40;25.90;;;;;;4869954;29;20453;-80
2022/07/04 11:22:10;;;;;;;2.53;2.10;;;26.50;25.70;;;;;;4872506;29;20519;-83
2022/07/04 11:24:39;;;;;;;2.07;1.97;;;27.10;25.40;;;;;;4874832;29;20496;-83
2022/07/04 11:27:10;;;;;;;3.13;2.10;;;27.50;25.00;;;;;;4873839;29;20501;-81
2022/07/04 11:29:37;;;;;;;2.83;2.47;;;27.60;24.50;;;;;;4872881;29;20428;-82
2022/07/04 11:32:07;;;;;;;3.70;1.90;;;27.60;24.40;;;;;;4875791;29;20464;-82
2022/07/04 11:34:35;;;;;;;3.57;2.30;;;27.70;24.70;;;;;;4876592;29;20522;-80
2022/07/04 11:37:04;;;;;;;3.77;2.10;;;27.80;24.30;;;;;;4883025;29;20446;-82
2022/07/04 11:39:31;;;;;;;1.80;1.70;;;27.60;25.20;;;;;;4875226;29;20549;-80
2022/07/04 11:47:36;;;;;;;2.60;1.90;;;27.30;25.50;;;;;;4867709;29;20467;-80
2022/07/04 11:50:08;;;;;;;1.87;1.67;;;27.30;24.70;;;;;;4878666;29;20464;-81
2022/07/04 11:52:42;;;;;;;3.30;2.37;;;26.90;25.30;;;;;;4880971;29;20495;-83
2022/07/04 11:55:10;;;;;;;5.13;2.00;;;27.20;25.50;;;;;;4883974;29;20449;-78
2022/07/04 11:57:39;;;;;;;5.33;2.27;;;27.30;25.50;;;;;;4876707;29;21005;-80
2022/07/04 12:00:09;;;;;;;2.77;1.77;;;27.30;25.10;;;;;;4871884;29;20537;-81
2022/07/04 12:02:37;;;;;;;2.80;2.23;;;27.50;24.40;;;;;;4880341;29;20488;-81
2022/07/04 12:05:08;;;;;;;2.90;1.90;;;27.80;24.60;;;;;;4872776;29;20473;-81
2022/07/04 12:07:37;;;;;;;9.67;2.17;;;27.90;24.30;;;;;;4875162;29;20451;-82
2022/07/04 12:10:10;;;;;;;2.10;2.00;;;27.40;24.90;;;;;;4871458;29;20439;-81
2022/07/04 12:12:52;;;;;;;3.00;2.40;;;26.70;25.20;;;;;;4875499;29;20999;-82
2022/07/04 12:15:20;;;;;;;2.80;1.90;;;26.10;25.40;;;;;;4854703;29;20470;-80
2022/07/04 12:17:54;;;;;;;2.87;1.90;;;26.30;25.60;;;;;;4853359;29;20565;-83
2022/07/04 12:20:23;;;;;;;8.00;2.20;;;27.20;25.50;;;;;;4851998;29;20455;-83
2022/07/04 12:22:52;;;;;;;5.37;1.60;;;26.90;25.30;;;;;;4858174;29;20468;-80
2022/07/04 12:25:25;;;;;;;4.20;1.50;;;27.10;25.40;;;;;;4874126;29;20465;-80
2022/07/04 12:27:57;;;;;;;3.13;1.97;;;27.60;23.50;;;;;;4868072;29;20996;-81
2022/07/04 12:30:28;;;;;;;2.00;1.83;;;27.90;23.20;;;;;;4864985;29;20458;-79
2022/07/04 12:32:59;;;;;;;1.63;1.53;;;27.90;22.90;;;;;;4874550;29;20536;-79
2022/07/04 12:35:44;;;;;;;1.80;1.40;;;27.70;23.40;;;;;;4871328;29;20435;-81
2022/07/04 12:38:13;;;;;;;1.70;1.60;;;27.70;23.00;;;;;;4871953;29;20472;-81
2022/07/04 12:40:55;;;;;;;2.03;1.70;;;27.80;22.90;;;;;;4870334;29;20461;-79
2022/07/04 12:43:22;;;;;;;2.30;1.80;;;27.80;22.60;;;;;;4873262;29;20514;-81
2022/07/04 12:45:51;;;;;;;2.97;1.73;;;28.00;22.70;;;;;;4875415;29;20518;-81
2022/07/04 12:48:21;;;;;;;1.60;1.50;;;27.80;22.80;;;;;;4873939;29;20457;-82
2022/07/04 12:50:50;;;;;;;2.70;1.70;;;27.80;22.40;;;;;;4876015;29;20514;-81
2022/07/04 12:53:18;;;;;;;6.23;1.80;;;28.00;22.30;;;;;;4877039;29;20498;-82
2022/07/04 12:55:46;;;;;;;1.60;1.50;;;27.30;22.90;;;;;;4874788;29;20498;-82
2022/07/04 12:58:14;;;;;;;5.13;1.70;;;26.80;24.00;;;;;;4874837;29;20467;-82
2022/07/04 13:00:41;;;;;;;2.67;2.03;;;27.30;23.30;;;;;;4872804;29;20493;-81
2022/07/04 13:03:09;;;;;;;2.20;1.93;;;27.60;22.50;;;;;;4870067;29;20514;-82
2022/07/04 13:05:37;;;;;;;2.63;2.07;;;28.00;22.20;;;;;;4877103;29;20488;-83
2022/07/04 13:08:06;;;;;;;1.97;1.80;;;28.20;21.80;;;;;;4873920;29;20459;-82
2022/07/04 13:10:33;;;;;;;1.60;1.50;;;28.40;21.90;;;;;;4876234;29;20437;-82
2022/07/04 13:13:01;;;;;;;4.47;1.83;;;28.70;21.60;;;;;;4873490;29;20909;-83
2022/07/04 13:15:28;;;;;;;1.90;1.80;;;28.30;21.80;;;;;;4876009;29;20468;-81
2022/07/04 13:17:56;;;;;;;2.20;1.83;;;28.10;21.70;;;;;;4880536;29;20890;-82
2022/07/04 13:20:23;;;;;;;1.93;1.43;;;28.20;22.10;;;;;;4883347;29;20448;-84
2022/07/04 13:22:51;;;;;;;3.03;1.83;;;28.40;21.80;;;;;;4880623;29;20562;-79
2022/07/04 13:25:21;;;;;;;2.40;2.20;;;28.40;21.60;;;;;;4881852;29;20446;-82
2022/07/04 13:27:49;;;;;;;7.20;2.00;;;28.50;21.70;;;;;;4885208;29;20466;-81
2022/07/04 13:30:17;;;;;;;2.10;1.90;;;28.30;21.80;;;;;;4886363;29;20506;-82
2022/07/04 13:32:47;;;;;;;3.50;2.07;;;28.50;22.00;;;;;;4886976;29;20489;-80
2022/07/04 13:35:26;;;;;;;4.60;2.00;;;28.90;21.10;;;;;;4886764;29;20463;-83
2022/07/04 13:37:54;;;;;;;2.43;1.90;;;28.90;20.80;;;;;;4885325;29;20432;-83
2022/07/04 13:40:33;;;;;;;6.90;2.10;;;28.20;21.80;;;;;;4884850;29;20442;-85
2022/07/04 13:43:03;;;;;;;2.17;1.97;;;27.80;22.10;;;;;;4881354;29;20487;-84
2022/07/04 13:45:30;;;;;;;2.17;1.90;;;27.30;22.90;;;;;;4883017;29;20458;-83
2022/07/04 13:48:07;;;;;;;6.73;2.00;;;26.90;24.20;;;;;;4885994;29;20467;-82